createdAt,value
2023-03-19T00:00:49.717Z,7.42
2023-03-19T00:03:19.202Z,6.55
2023-03-19T00:05:53.619Z,6.22
2023-03-19T00:08:22.225Z,7.12
2023-03-19T00:10:50.463Z,7.33
2023-03-19T00:13:18.989Z,7.05
2023-03-19T00:15:46.976Z,7.35
2023-03-19T00:18:15.620Z,7.60
2023-03-19T00:20:43.710Z,8.93
2023-03-19T00:23:11.750Z,7.87
2023-03-19T00:25:39.484Z,7.72
2023-03-19T00:28:07.456Z,6.85
2023-03-19T00:30:35.128Z,7.50
2023-03-19T00:33:03.163Z,7.40
2023-03-19T00:35:31.234Z,7.53
2023-03-19T00:37:59.113Z,6.60
2023-03-19T00:40:26.940Z,7.12
2023-03-19T00:42:54.645Z,6.80
2023-03-19T00:45:22.400Z,6.15
2023-03-19T00:47:49.995Z,6.20
2023-03-19T00:50:18.097Z,6.33
2023-03-19T00:52:45.885Z,6.70
2023-03-19T00:55:13.565Z,6.60
2023-03-19T00:57:41.460Z,6.37
2023-03-19T01:00:11.404Z,5.87
2023-03-19T01:02:39.041Z,6.45
2023-03-19T01:05:09.088Z,6.53
2023-03-19T01:07:36.932Z,6.80
2023-03-19T01:10:05.586Z,6.42
2023-03-19T01:12:33.642Z,6.05
2023-03-19T01:15:01.652Z,6.08
2023-03-19T01:17:29.416Z,5.87
2023-03-19T01:19:57.206Z,6.12
2023-03-19T01:22:25.679Z,6.35
2023-03-19T01:24:55.224Z,6.20
2023-03-19T01:27:23.137Z,6.53
2023-03-19T01:29:51.212Z,6.95
2023-03-19T01:32:21.095Z,7.58
2023-03-19T01:35:09.404Z,5.65
2023-03-19T01:37:37.738Z,5.92
2023-03-19T01:40:08.841Z,5.78
2023-03-19T01:42:57.499Z,5.70
2023-03-19T01:45:41.929Z,5.95
2023-03-19T01:48:29.068Z,6.33
2023-03-19T01:50:59.849Z,5.40
2023-03-19T01:53:50.230Z,4.85
2023-03-19T01:56:27.926Z,5.20
2023-03-19T01:59:02.963Z,5.37
2023-03-19T02:01:49.789Z,5.47
2023-03-19T02:04:18.798Z,6.45
2023-03-19T02:06:47.017Z,6.05
2023-03-19T02:09:15.174Z,5.85
2023-03-19T02:11:43.124Z,6.35
2023-03-19T02:14:12.826Z,5.60
2023-03-19T02:16:40.643Z,5.62
2023-03-19T02:19:13.375Z,6.03
2023-03-19T02:21:41.275Z,9.23
2023-03-19T02:24:25.981Z,6.47
2023-03-19T02:26:57.642Z,6.30
2023-03-19T02:29:26.266Z,6.05
2023-03-19T02:31:56.287Z,5.25
2023-03-19T02:34:35.928Z,5.28
2023-03-19T02:37:15.791Z,5.33
2023-03-19T02:40:08.051Z,5.78
2023-03-19T02:42:37.990Z,5.87
2023-03-19T02:45:08.665Z,7.10
2023-03-19T02:47:36.861Z,7.80
2023-03-19T02:50:07.494Z,6.10
2023-03-19T02:52:43.322Z,5.50
2023-03-19T02:55:14.434Z,6.05
2023-03-19T02:57:44.508Z,5.78
2023-03-19T03:00:27.873Z,6.72
2023-03-19T03:03:05.977Z,6.75
2023-03-19T03:05:39.153Z,5.95
2023-03-19T03:08:08.736Z,5.95
2023-03-19T03:10:37.065Z,6.25
2023-03-19T03:13:05.085Z,18.50
2023-03-19T03:15:32.612Z,5.78
2023-03-19T03:18:00.914Z,5.45
2023-03-19T03:20:28.673Z,5.45
2023-03-19T03:22:56.351Z,4.95
2023-03-19T03:25:24.277Z,4.80
2023-03-19T03:27:52.853Z,4.92
2023-03-19T03:30:20.695Z,5.97
2023-03-19T03:32:48.365Z,5.92
2023-03-19T03:35:18.487Z,6.53
2023-03-19T03:37:46.062Z,5.97
2023-03-19T03:40:15.649Z,6.10
2023-03-19T03:42:44.512Z,6.53
2023-03-19T03:45:12.840Z,6.08
2023-03-19T03:47:41.869Z,6.72
2023-03-19T03:50:11.227Z,6.53
2023-03-19T03:52:40.702Z,10.32
2023-03-19T03:55:09.735Z,9.75
2023-03-19T03:57:37.358Z,6.30
2023-03-19T04:00:06.692Z,4.95
2023-03-19T04:02:36.448Z,5.35
2023-03-19T04:05:05.047Z,4.72
2023-03-19T04:07:33.068Z,7.00
2023-03-19T04:10:01.446Z,5.05
2023-03-19T04:12:29.130Z,5.12
2023-03-19T04:14:56.754Z,4.80
2023-03-19T04:17:24.541Z,4.85
2023-03-19T04:19:52.290Z,4.78
2023-03-19T04:22:20.044Z,4.67
2023-03-19T04:24:48.066Z,4.90
2023-03-19T04:27:15.790Z,6.22
2023-03-19T04:29:44.226Z,6.87
2023-03-19T04:32:12.259Z,8.88
2023-03-19T04:34:41.350Z,7.03
2023-03-19T04:37:09.992Z,6.60
2023-03-19T04:39:39.512Z,8.13
2023-03-19T04:42:07.471Z,5.97
2023-03-19T04:44:38.041Z,5.85
2023-03-19T04:47:06.537Z,5.50
2023-03-19T04:49:36.379Z,5.85
2023-03-19T04:52:05.664Z,5.87
2023-03-19T04:54:33.468Z,6.65
2023-03-19T04:57:01.436Z,7.87
2023-03-19T04:59:31.477Z,13.05
2023-03-19T05:01:59.256Z,10.40
2023-03-19T05:04:27.031Z,9.18
2023-03-19T05:06:57.698Z,9.13
2023-03-19T05:09:25.733Z,9.35
2023-03-19T05:11:53.568Z,12.93
2023-03-19T05:14:22.994Z,8.65
2023-03-19T05:16:58.559Z,8.03
2023-03-19T05:19:27.603Z,7.72
2023-03-19T05:21:56.840Z,7.42
2023-03-19T05:24:25.405Z,6.97
2023-03-19T05:26:53.595Z,6.35
2023-03-19T05:29:23.901Z,6.83
2023-03-19T05:32:01.264Z,6.55
2023-03-19T05:34:29.422Z,7.20
2023-03-19T05:36:57.396Z,7.22
2023-03-19T05:39:25.243Z,6.67
2023-03-19T05:41:53.834Z,6.35
2023-03-19T05:44:23.468Z,5.47
2023-03-19T05:46:56.110Z,6.15
2023-03-19T05:49:25.298Z,6.45
2023-03-19T05:51:52.690Z,5.62
2023-03-19T05:54:20.487Z,14.10
2023-03-19T05:56:55.900Z,6.35
2023-03-19T05:59:37.454Z,5.72
2023-03-19T06:02:06.941Z,6.50
2023-03-19T06:04:35.149Z,6.28
2023-03-19T06:07:03.744Z,6.30
2023-03-19T06:09:31.754Z,6.30
2023-03-19T06:12:00.164Z,6.22
2023-03-19T06:14:47.604Z,5.92
2023-03-19T06:17:29.209Z,7.08
2023-03-19T06:19:58.786Z,7.67
2023-03-19T06:22:27.173Z,12.37
2023-03-19T06:24:55.343Z,13.53
2023-03-19T06:27:23.684Z,12.58
2023-03-19T06:29:52.051Z,13.25
2023-03-19T06:32:21.582Z,15.18
2023-03-19T06:34:50.677Z,14.95
2023-03-19T06:37:18.624Z,12.47
2023-03-19T06:39:46.420Z,10.95
2023-03-19T06:42:14.267Z,9.05
2023-03-19T06:44:42.174Z,9.15
2023-03-19T06:47:10.536Z,7.92
2023-03-19T06:49:40.351Z,8.03
2023-03-19T06:52:08.195Z,7.25
2023-03-19T06:54:38.343Z,7.75
2023-03-19T06:57:05.927Z,8.08
2023-03-19T06:59:33.646Z,8.85
2023-03-19T07:02:01.829Z,8.38
2023-03-19T07:04:32.248Z,8.53
2023-03-19T07:07:01.446Z,9.25
2023-03-19T07:09:29.172Z,9.40
2023-03-19T07:11:56.909Z,9.15
2023-03-19T07:14:24.952Z,9.13
2023-03-19T07:16:52.768Z,9.85
2023-03-19T07:19:20.889Z,8.90
2023-03-19T07:21:48.502Z,9.50
2023-03-19T07:24:16.380Z,8.90
2023-03-19T07:26:44.027Z,8.53
2023-03-19T07:29:11.902Z,5.45
2023-03-19T07:31:40.397Z,4.67
2023-03-19T07:34:08.396Z,5.53
2023-03-19T07:36:36.090Z,4.80
2023-03-19T07:39:03.898Z,5.50
2023-03-19T07:41:31.791Z,5.62
2023-03-19T07:44:00.624Z,5.83
2023-03-19T07:46:28.331Z,5.42
2023-03-19T07:48:56.022Z,5.55
2023-03-19T07:51:24.940Z,5.45
2023-03-19T07:53:54.872Z,5.78
2023-03-19T07:56:22.682Z,5.75
2023-03-19T07:58:51.233Z,6.17
2023-03-19T08:01:19.410Z,4.87
2023-03-19T08:03:48.142Z,4.87
2023-03-19T08:06:15.612Z,4.17
2023-03-19T08:08:43.254Z,3.50
2023-03-19T08:11:11.248Z,3.52
2023-03-19T08:13:38.560Z,3.33
2023-03-19T08:16:06.578Z,3.30
2023-03-19T08:18:35.708Z,3.00
2023-03-19T08:21:03.814Z,3.83
2023-03-19T08:23:31.560Z,3.90
2023-03-19T08:25:59.413Z,3.90
2023-03-19T08:28:27.158Z,4.05
2023-03-19T08:30:55.638Z,3.12
2023-03-19T08:33:24.277Z,3.50
2023-03-19T08:35:51.863Z,3.30
2023-03-19T08:38:19.552Z,3.40
2023-03-19T08:40:47.266Z,3.33
2023-03-19T08:43:14.846Z,3.30
2023-03-19T08:45:42.294Z,3.00
2023-03-19T08:48:09.634Z,2.90
2023-03-19T08:50:37.011Z,3.10
2023-03-19T08:53:04.866Z,2.12
2023-03-19T08:55:32.382Z,2.00
2023-03-19T08:58:00.150Z,2.30
2023-03-19T09:00:27.516Z,2.10
2023-03-19T09:02:54.933Z,2.27
2023-03-19T09:05:23.720Z,2.35
2023-03-19T09:07:52.393Z,2.30
2023-03-19T09:10:19.827Z,1.95
2023-03-19T09:12:48.626Z,2.10
2023-03-19T09:15:16.500Z,2.37
2023-03-19T09:17:44.717Z,2.02
2023-03-19T09:20:12.348Z,2.08
2023-03-19T09:22:39.960Z,2.30
2023-03-19T09:25:08.738Z,2.10
2023-03-19T09:27:36.371Z,2.40
2023-03-19T09:30:08.221Z,1.52
2023-03-19T09:32:36.514Z,1.60
2023-03-19T09:35:04.903Z,2.00
2023-03-19T09:37:32.566Z,1.92
2023-03-19T09:40:00.505Z,2.10
2023-03-19T09:42:56.388Z,1.92
2023-03-19T09:45:24.636Z,2.30
2023-03-19T09:47:57.007Z,1.92
2023-03-19T09:50:28.433Z,2.20
2023-03-19T09:53:07.069Z,1.80
2023-03-19T09:55:51.981Z,2.05
2023-03-19T09:58:35.027Z,2.47
2023-03-19T10:01:03.872Z,2.30
2023-03-19T10:03:49.068Z,2.50
2023-03-19T10:06:36.197Z,2.50
2023-03-19T10:09:49.082Z,2.12
2023-03-19T10:12:33.877Z,2.20
2023-03-19T10:15:15.732Z,2.00
2023-03-19T10:18:13.061Z,2.05
2023-03-19T10:21:08.467Z,4.95
2023-03-19T10:23:59.970Z,3.67
2023-03-19T10:26:36.719Z,2.25
2023-03-19T10:29:11.824Z,2.22
2023-03-19T10:32:12.208Z,2.20
2023-03-19T10:34:49.786Z,2.83
2023-03-19T10:37:26.149Z,3.20
2023-03-19T10:39:57.830Z,2.20
2023-03-19T10:43:03.099Z,2.20
2023-03-19T10:45:38.932Z,2.42
2023-03-19T10:48:10.368Z,2.20
2023-03-19T10:50:53.326Z,2.40
2023-03-19T10:53:37.249Z,1.87
2023-03-19T10:56:25.036Z,2.10
2023-03-19T10:59:08.891Z,2.52
2023-03-19T11:04:20.489Z,2.47
2023-03-19T11:06:52.552Z,2.08
2023-03-19T11:09:25.587Z,2.12
2023-03-19T11:11:57.569Z,2.45
2023-03-19T11:14:35.347Z,2.20
2023-03-19T11:17:17.565Z,2.17
2023-03-19T11:19:57.900Z,1.92
2023-03-19T11:22:33.471Z,2.37
2023-03-19T11:25:19.774Z,2.33
2023-03-19T11:28:13.634Z,1.90
2023-03-19T11:31:12.375Z,2.10
2023-03-19T11:34:16.929Z,1.98
2023-03-19T11:37:11.377Z,1.90
2023-03-19T11:39:53.678Z,2.27
2023-03-19T11:42:50.657Z,2.05
2023-03-19T11:45:47.475Z,2.12
2023-03-19T11:48:29.466Z,2.67
2023-03-19T11:51:41.060Z,2.75
2023-03-19T11:54:50.778Z,2.40
2023-03-19T11:57:39.190Z,2.60
2023-03-19T12:00:21.277Z,3.10
2023-03-19T12:03:28.192Z,3.37
2023-03-19T12:06:00.159Z,2.55
2023-03-19T12:08:46.131Z,2.75
2023-03-19T12:11:53.929Z,3.30
2023-03-19T12:14:29.878Z,2.65
2023-03-19T12:17:19.349Z,2.20
2023-03-19T12:20:09.238Z,2.70
2023-03-19T12:23:09.042Z,2.95
2023-03-19T12:25:55.858Z,2.47
2023-03-19T12:28:28.666Z,2.77
2023-03-19T12:31:34.868Z,3.52
2023-03-19T12:34:15.013Z,3.60
2023-03-19T12:37:17.149Z,3.30
2023-03-19T12:39:50.314Z,3.22
2023-03-19T12:42:21.004Z,2.77
2023-03-19T12:44:53.723Z,2.90
2023-03-19T12:47:26.330Z,2.35
2023-03-19T12:50:07.908Z,2.70
2023-03-19T12:52:39.694Z,2.42
2023-03-19T12:55:24.865Z,2.67
2023-03-19T12:58:14.244Z,2.90
2023-03-19T13:00:50.440Z,2.60
2023-03-19T13:03:44.110Z,2.50
2023-03-19T13:06:28.567Z,3.37
2023-03-19T13:09:29.375Z,3.40
2023-03-19T13:12:06.964Z,2.30
2023-03-19T13:15:01.364Z,3.15
2023-03-19T13:17:36.995Z,2.40
2023-03-19T13:20:52.773Z,2.08
2023-03-19T13:23:25.896Z,2.15
2023-03-19T13:25:59.505Z,1.98
2023-03-19T13:28:32.919Z,2.05
2023-03-19T13:31:09.669Z,1.87
2023-03-19T13:33:41.009Z,2.40
2023-03-19T13:36:14.095Z,1.90
2023-03-19T13:38:51.172Z,1.67
2023-03-19T13:41:42.552Z,1.75
2023-03-19T13:44:30.572Z,2.10
2023-03-19T13:47:23.678Z,2.10
2023-03-19T13:50:13.486Z,1.70
2023-03-19T13:53:09.375Z,1.87
2023-03-19T13:55:52.349Z,1.87
2023-03-19T13:58:41.137Z,1.85
2023-03-19T14:01:14.156Z,2.05
2023-03-19T14:03:56.015Z,1.70
2023-03-19T14:06:44.819Z,2.40
2023-03-19T14:09:38.454Z,2.90
2023-03-19T14:12:20.749Z,4.33
2023-03-19T14:15:12.575Z,2.17
2023-03-19T14:17:57.305Z,7.37
2023-03-19T14:20:39.208Z,2.50
2023-03-19T14:23:23.324Z,2.08
2023-03-19T14:26:01.613Z,2.02
2023-03-19T14:28:37.311Z,2.40
2023-03-19T14:31:06.285Z,2.25
2023-03-19T14:33:39.580Z,2.00
2023-03-19T14:36:14.865Z,2.22
2023-03-19T14:38:53.761Z,2.02
2023-03-19T14:41:23.809Z,2.02
2023-03-19T14:44:13.252Z,2.17
2023-03-19T14:47:05.047Z,2.40
2023-03-19T14:49:55.860Z,2.67
2023-03-19T14:52:52.633Z,3.10
2023-03-19T14:55:20.526Z,1.98
2023-03-19T14:57:48.509Z,2.10
2023-03-19T15:00:19.938Z,2.00
2023-03-19T15:02:50.567Z,2.52
2023-03-19T15:05:29.551Z,2.30
2023-03-19T15:08:04.698Z,2.40
2023-03-19T15:10:49.939Z,2.47
2023-03-19T15:13:38.093Z,2.20
2023-03-19T15:16:23.363Z,2.90
2023-03-19T15:18:51.212Z,3.87
2023-03-19T15:21:20.794Z,2.58
2023-03-19T15:23:49.200Z,2.37
2023-03-19T15:26:33.183Z,2.60
2023-03-19T15:29:04.057Z,2.42
2023-03-19T15:31:52.725Z,2.47
2023-03-19T15:34:26.023Z,2.90
2023-03-19T15:37:10.267Z,3.25
2023-03-19T15:39:48.693Z,3.20
2023-03-19T15:42:17.502Z,3.90
2023-03-19T15:44:50.649Z,4.80
2023-03-19T15:47:23.932Z,4.62
2023-03-19T15:50:00.230Z,4.12
2023-03-19T15:52:38.499Z,3.02
2023-03-19T15:55:08.056Z,3.40
2023-03-19T15:57:39.107Z,2.60
2023-03-19T16:00:13.132Z,2.85
2023-03-19T16:02:43.664Z,3.37
2023-03-19T16:05:29.658Z,4.70
2023-03-19T16:08:17.196Z,5.72
2023-03-19T16:10:46.945Z,4.20
2023-03-19T16:13:38.868Z,4.70
2023-03-19T16:16:11.817Z,4.58
2023-03-19T16:18:55.960Z,5.67
2023-03-19T16:21:29.122Z,6.95
2023-03-19T16:24:00.920Z,9.30
2023-03-19T16:26:36.957Z,11.43
2023-03-19T16:29:41.237Z,15.15
2023-03-19T16:35:13.793Z,17.60
2023-03-19T16:37:44.426Z,26.20
2023-03-19T16:40:17.473Z,24.85
2023-03-19T16:42:52.025Z,22.05
2023-03-19T16:45:32.701Z,29.90
2023-03-19T16:48:05.654Z,49.03
2023-03-19T16:50:37.666Z,33.08
2023-03-19T16:53:30.798Z,40.50
2023-03-19T16:56:01.025Z,27.30
2023-03-19T16:58:35.792Z,42.50
2023-03-19T17:01:21.362Z,53.85
2023-03-19T17:03:50.820Z,51.33
2023-03-19T17:06:20.016Z,53.08
2023-03-19T17:08:48.293Z,57.30
2023-03-19T17:11:29.192Z,58.45
2023-03-19T17:13:59.166Z,44.93
2023-03-19T17:16:27.975Z,46.80
2023-03-19T17:18:57.224Z,48.80
2023-03-19T17:21:28.050Z,45.05
2023-03-19T17:23:56.660Z,39.65
2023-03-19T17:26:28.097Z,46.55
2023-03-19T17:28:56.944Z,45.90
2023-03-19T17:31:33.011Z,41.92
2023-03-19T17:34:14.020Z,53.13
2023-03-19T17:36:44.831Z,46.80
2023-03-19T17:39:12.512Z,38.55
2023-03-19T17:41:40.111Z,34.38
2023-03-19T17:44:08.172Z,35.40
2023-03-19T17:46:51.028Z,30.30
2023-03-19T17:49:23.423Z,46.35
2023-03-19T17:51:51.870Z,37.65
2023-03-19T17:54:19.610Z,34.88
2023-03-19T17:56:47.875Z,31.05
2023-03-19T17:59:15.415Z,26.30
2023-03-19T18:01:43.785Z,20.08
2023-03-19T18:04:18.270Z,19.73
2023-03-19T18:06:56.151Z,17.80
2023-03-19T18:09:28.046Z,20.75
2023-03-19T18:11:55.998Z,25.90
2023-03-19T18:14:23.599Z,26.90
2023-03-19T18:16:52.864Z,31.45
2023-03-19T18:19:30.791Z,34.40
2023-03-19T18:21:59.023Z,34.95
2023-03-19T18:24:26.639Z,32.48
2023-03-19T18:26:54.076Z,37.42
2023-03-19T18:29:21.901Z,34.45
2023-03-19T18:31:50.974Z,35.85
2023-03-19T18:34:19.062Z,39.13
2023-03-19T18:36:47.911Z,36.48
2023-03-19T18:39:16.622Z,31.87
2023-03-19T18:41:44.688Z,34.78
2023-03-19T18:44:13.218Z,35.33
2023-03-19T18:46:41.808Z,37.63
2023-03-19T18:49:25.496Z,45.63
2023-03-19T18:52:08.982Z,55.45
2023-03-19T18:54:23.413Z,56.40
2023-03-19T18:56:52.749Z,56.88
2023-03-19T18:59:26.919Z,56.08
2023-03-19T19:02:29.282Z,58.02
2023-03-19T19:04:57.809Z,58.45
2023-03-19T19:07:26.004Z,60.20
2023-03-19T19:09:53.777Z,57.35
2023-03-19T19:12:21.644Z,52.33
2023-03-19T19:14:49.711Z,48.78
2023-03-19T19:17:20.943Z,43.15
2023-03-19T19:19:48.574Z,38.48
2023-03-19T19:22:18.380Z,36.73
2023-03-19T19:24:46.526Z,40.98
2023-03-19T19:27:21.694Z,43.92
2023-03-19T19:29:50.403Z,54.38
2023-03-19T19:32:25.114Z,53.75
2023-03-19T19:34:53.682Z,38.88
2023-03-19T19:37:23.273Z,32.42
2023-03-19T19:39:51.776Z,37.05
2023-03-19T19:42:22.470Z,39.03
2023-03-19T19:44:58.146Z,42.03
2023-03-19T19:47:27.263Z,46.65
2023-03-19T19:49:56.107Z,46.08
2023-03-19T19:52:24.383Z,32.20
2023-03-19T19:55:03.898Z,29.02
2023-03-19T19:57:31.560Z,24.02
2023-03-19T19:59:59.451Z,25.12
2023-03-19T20:02:29.302Z,28.35
2023-03-19T20:04:59.724Z,28.02
2023-03-19T20:07:27.643Z,28.02
2023-03-19T20:09:55.249Z,32.45
2023-03-19T20:12:32.545Z,28.90
2023-03-19T20:15:05.572Z,27.85
2023-03-19T20:17:33.152Z,24.18
2023-03-19T20:20:00.774Z,23.70
2023-03-19T20:22:29.125Z,21.80
2023-03-19T20:24:57.522Z,21.12
2023-03-19T20:27:30.903Z,20.45
2023-03-19T20:29:59.071Z,25.65
2023-03-19T20:32:38.176Z,23.50
2023-03-19T20:35:11.606Z,22.70
2023-03-19T20:37:39.161Z,22.07
2023-03-19T20:40:07.718Z,22.52
2023-03-19T20:42:35.544Z,15.65
2023-03-19T20:45:06.729Z,16.57
2023-03-19T20:47:34.868Z,13.13
2023-03-19T20:50:02.616Z,15.65
2023-03-19T20:52:30.608Z,14.53
2023-03-19T20:54:58.304Z,14.35
2023-03-19T20:57:30.066Z,11.65
2023-03-19T21:00:01.944Z,10.23
2023-03-19T21:02:29.876Z,9.55
2023-03-19T21:04:57.420Z,9.90
2023-03-19T21:07:34.049Z,11.90
2023-03-19T21:10:12.961Z,11.65
2023-03-19T21:12:40.344Z,11.80
2023-03-19T21:15:15.082Z,12.03
2023-03-19T21:17:43.919Z,12.60
2023-03-19T21:20:22.303Z,13.28
2023-03-19T21:23:17.116Z,12.10
2023-03-19T21:25:45.670Z,14.43
2023-03-19T21:28:35.362Z,11.60
2023-03-19T21:31:03.691Z,9.98
2023-03-19T21:33:34.259Z,9.18
2023-03-19T21:36:04.003Z,9.55
2023-03-19T21:38:32.488Z,10.00
2023-03-19T21:41:04.438Z,10.13
2023-03-19T21:43:47.810Z,11.20
2023-03-19T21:46:24.197Z,11.80
2023-03-19T21:48:46.393Z,11.50
2023-03-19T21:51:15.908Z,9.48
2023-03-19T21:53:45.097Z,8.98
2023-03-19T21:56:24.293Z,9.03
2023-03-19T21:58:53.062Z,9.15
2023-03-19T22:01:25.857Z,7.92
2023-03-19T22:03:56.393Z,8.75
2023-03-19T22:06:25.011Z,9.98
2023-03-19T22:08:53.457Z,10.48
2023-03-19T22:11:28.606Z,10.45
2023-03-19T22:14:04.562Z,10.45
2023-03-19T22:16:33.189Z,10.08
2023-03-19T22:19:01.190Z,11.15
2023-03-19T22:21:32.268Z,11.68
2023-03-19T22:23:59.858Z,11.22
2023-03-19T22:26:38.203Z,11.20
2023-03-19T22:29:17.078Z,13.40
2023-03-19T22:31:50.107Z,15.05
2023-03-19T22:34:21.609Z,15.32
2023-03-19T22:36:49.908Z,13.50
2023-03-19T22:39:17.700Z,16.23
2023-03-19T22:41:47.639Z,13.15
2023-03-19T22:44:28.088Z,11.78
2023-03-19T22:46:58.177Z,11.35
2023-03-19T22:49:27.847Z,12.07
2023-03-19T22:51:57.228Z,10.23
2023-03-19T22:54:26.648Z,11.53
2023-03-19T22:56:54.118Z,11.12
2023-03-19T22:59:22.365Z,11.80
2023-03-19T23:01:50.505Z,9.38
2023-03-19T23:04:30.261Z,7.92
2023-03-19T23:06:59.927Z,6.83
2023-03-19T23:09:31.707Z,6.67
2023-03-19T23:12:00.685Z,5.80
2023-03-19T23:14:31.014Z,6.05
2023-03-19T23:17:04.058Z,7.58
2023-03-19T23:22:04.399Z,6.72
2023-03-19T23:24:33.120Z,7.58
2023-03-19T23:27:01.785Z,6.92
2023-03-19T23:29:34.805Z,9.55
2023-03-19T23:32:03.795Z,6.67
2023-03-19T23:34:33.562Z,5.65
2023-03-19T23:37:00.853Z,5.72
2023-03-19T23:39:28.789Z,5.70
2023-03-19T23:41:58.799Z,6.03
2023-03-19T23:44:28.600Z,6.33
2023-03-19T23:47:00.462Z,5.95
2023-03-19T23:49:31.782Z,5.83
2023-03-19T23:52:01.479Z,7.20
2023-03-19T23:54:37.520Z,7.95
2023-03-19T23:57:10.128Z,6.62
2023-03-19T23:59:41.648Z,4.92
